createdAt,value
2022-11-05T00:01:21.613Z,63.80
2022-11-05T00:04:09.524Z,55.00
2022-11-05T00:06:57.171Z,54.20
2022-11-05T00:09:30.726Z,55.10
2022-11-05T00:12:20.864Z,55.40
2022-11-05T00:15:09.517Z,67.50
2022-11-05T00:17:40.753Z,64.50
2022-11-05T00:20:14.076Z,65.10
2022-11-05T00:23:02.365Z,57.10
2022-11-05T00:25:32.923Z,63.60
2022-11-05T00:28:05.352Z,65.90
2022-11-05T00:30:35.825Z,67.00
2022-11-05T00:33:06.199Z,64.30
2022-11-05T00:35:36.514Z,57.20
2022-11-05T00:38:06.825Z,58.10
2022-11-05T00:40:37.541Z,58.50
2022-11-05T00:43:25.325Z,56.50
2022-11-05T00:45:55.648Z,53.50
2022-11-05T00:48:43.638Z,49.60
2022-11-05T00:51:14.110Z,38.50
2022-11-05T00:53:44.569Z,34.10
2022-11-05T00:56:15.024Z,35.40
2022-11-05T00:58:45.451Z,40.30
2022-11-05T01:01:15.888Z,34.50
2022-11-05T01:03:51.459Z,35.30
2022-11-05T01:06:22.403Z,41.40
2022-11-05T01:08:52.840Z,38.00
2022-11-05T01:11:33.997Z,37.40
2022-11-05T01:14:07.665Z,35.10
2022-11-05T01:16:39.211Z,33.60
2022-11-05T01:19:11.657Z,39.70
2022-11-05T01:21:42.064Z,38.00
2022-11-05T01:24:13.656Z,37.90
2022-11-05T01:26:44.028Z,41.30
2022-11-05T01:29:14.610Z,36.20
2022-11-05T01:31:45.319Z,36.30
2022-11-05T01:34:15.694Z,34.00
2022-11-05T01:36:46.070Z,38.30
2022-11-05T01:39:16.799Z,37.70
2022-11-05T01:41:47.190Z,33.70
2022-11-05T01:44:52.497Z,36.80
2022-11-05T01:47:37.508Z,35.50
2022-11-05T01:50:27.716Z,36.30
2022-11-05T01:53:03.655Z,34.00
2022-11-05T01:55:38.103Z,34.50
2022-11-05T01:58:12.748Z,33.60
2022-11-05T02:00:43.859Z,36.50
2022-11-05T02:03:16.087Z,39.10
2022-11-05T02:05:49.136Z,42.20
2022-11-05T02:08:26.997Z,43.80
2022-11-05T02:10:58.825Z,34.40
2022-11-05T02:13:29.127Z,35.40
2022-11-05T02:16:08.249Z,38.60
2022-11-05T02:18:50.669Z,37.60
2022-11-05T02:21:51.932Z,37.60
2022-11-05T02:24:42.772Z,39.80
2022-11-05T02:27:22.619Z,35.80
2022-11-05T02:30:10.574Z,35.80
2022-11-05T02:33:05.120Z,34.80
2022-11-05T02:35:52.618Z,40.00
2022-11-05T02:38:36.425Z,35.80
2022-11-05T02:41:15.005Z,39.30
2022-11-05T02:43:56.526Z,37.30
2022-11-05T02:49:10.378Z,37.00
2022-11-05T02:51:49.341Z,33.50
2022-11-05T02:54:26.468Z,40.70
2022-11-05T02:57:00.253Z,36.10
2022-11-05T02:59:30.593Z,36.70
2022-11-05T03:02:03.979Z,38.50
2022-11-05T03:04:34.667Z,35.10
2022-11-05T03:07:23.615Z,33.00
2022-11-05T03:10:10.383Z,34.60
2022-11-05T03:12:53.069Z,34.10
2022-11-05T03:15:35.081Z,35.00
2022-11-05T03:18:14.753Z,36.50
2022-11-05T03:20:51.452Z,34.40
2022-11-05T03:23:30.481Z,38.40
2022-11-05T03:26:08.288Z,39.20
2022-11-05T03:28:42.730Z,38.30
2022-11-05T03:31:16.960Z,36.50
2022-11-05T03:33:49.702Z,36.00
2022-11-05T03:36:25.301Z,40.20
2022-11-05T03:38:58.329Z,33.90
2022-11-05T03:41:30.668Z,40.90
2022-11-05T03:44:06.299Z,45.20
2022-11-05T03:46:41.588Z,37.50
2022-11-05T03:49:19.249Z,43.50
2022-11-05T03:51:56.023Z,43.40
2022-11-05T03:54:26.595Z,42.60
2022-11-05T03:57:07.307Z,45.40
2022-11-05T03:59:45.080Z,35.50
2022-11-05T04:02:19.042Z,36.00
2022-11-05T04:04:49.870Z,37.90
2022-11-05T04:07:37.877Z,38.90
2022-11-05T04:10:26.463Z,39.00
2022-11-05T04:13:14.756Z,34.70
2022-11-05T04:15:58.979Z,38.50
2022-11-05T04:18:29.340Z,39.80
2022-11-05T04:21:17.154Z,40.10
2022-11-05T04:24:16.686Z,46.60
2022-11-05T04:26:47.475Z,44.00
2022-11-05T04:29:35.660Z,48.20
2022-11-05T04:32:06.553Z,43.60
2022-11-05T04:34:37.006Z,45.70
2022-11-05T04:37:07.661Z,47.40
2022-11-05T04:39:38.004Z,44.70
2022-11-05T04:42:08.744Z,46.60
2022-11-05T04:44:39.537Z,48.10
2022-11-05T04:47:09.904Z,45.40
2022-11-05T04:49:40.225Z,47.70
2022-11-05T04:52:10.540Z,39.60
2022-11-05T04:54:41.208Z,37.10
2022-11-05T04:57:11.750Z,33.30
2022-11-05T04:59:42.182Z,33.80
2022-11-05T05:02:12.682Z,39.80
2022-11-05T05:04:43.072Z,30.10
2022-11-05T05:07:13.672Z,32.70
2022-11-05T05:09:44.128Z,39.70
2022-11-05T05:12:14.549Z,34.70
2022-11-05T05:14:44.928Z,35.30
2022-11-05T05:17:15.351Z,39.00
2022-11-05T05:20:05.727Z,34.30
